Time;durP1;ratioP1;P1;durP2;ratioP2;P2;SDS_P1;SDS_P2;PMS_P1;PMS_P2;Temp;Humidity;BMP_temperature;BMP_pressure;BME280_temperature;BME280_humidity;BME280_pressure;Samples;Min_cycle;Max_cycle;Signal;HPM_P1;HPM_P2
2022/05/21 00:01:52;;;;;;;12.55;4.32;;;12.60;83.30;;;;;;5029949;28;20049;-87
2022/05/21 00:04:18;;;;;;;14.50;3.90;;;12.50;83.30;;;;;;5028599;28;20029;-88
2022/05/21 00:06:44;;;;;;;9.68;2.95;;;12.50;83.60;;;;;;5025114;28;20045;-87
2022/05/21 00:09:10;;;;;;;11.25;3.13;;;12.40;83.40;;;;;;5026132;28;20029;-89
2022/05/21 00:11:36;;;;;;;10.68;3.65;;;12.40;83.60;;;;;;5015366;28;20408;-87
2022/05/21 00:14:02;;;;;;;12.90;3.42;;;12.40;83.60;;;;;;5032418;28;20061;-85
2022/05/21 00:16:29;;;;;;;9.30;2.90;;;12.40;83.60;;;;;;5036107;28;20040;-89
2022/05/21 00:18:57;;;;;;;10.45;3.40;;;12.50;83.70;;;;;;5038892;28;20043;-87
2022/05/21 00:21:23;;;;;;;11.88;3.28;;;12.40;83.80;;;;;;5027524;28;20947;-88
2022/05/21 00:23:50;;;;;;;10.38;3.28;;;12.40;83.70;;;;;;5043029;28;20040;-87
2022/05/21 00:26:17;;;;;;;11.50;3.50;;;12.30;83.80;;;;;;5036995;28;20030;-88
2022/05/21 00:28:46;;;;;;;13.52;3.38;;;12.40;83.80;;;;;;5040360;28;20037;-90
2022/05/21 00:31:13;;;;;;;12.38;3.17;;;12.50;83.90;;;;;;5033634;28;20118;-89
2022/05/21 00:33:40;;;;;;;11.77;3.17;;;12.50;83.80;;;;;;5034073;28;20045;-88
2022/05/21 00:36:07;;;;;;;9.60;3.70;;;12.40;83.70;;;;;;5025078;28;20069;-88
2022/05/21 00:38:34;;;;;;;11.90;3.50;;;12.50;83.70;;;;;;5043461;28;20064;-88
2022/05/21 00:40:59;;;;;;;13.07;3.28;;;12.40;83.80;;;;;;5037454;28;20049;-88
2022/05/21 00:43:44;;;;;;;11.80;3.53;;;12.50;83.70;;;;;;5032863;28;20053;-88
2022/05/21 00:46:14;;;;;;;15.93;4.00;;;12.50;83.80;;;;;;5030845;28;20068;-88
2022/05/21 00:48:41;;;;;;;13.40;3.38;;;12.40;84.10;;;;;;5026111;28;20040;-88
2022/05/21 00:51:11;;;;;;;13.38;3.50;;;12.50;84.10;;;;;;5022263;28;20038;-88
2022/05/21 00:53:38;;;;;;;13.60;4.05;;;12.50;84.10;;;;;;5023358;28;20091;-90
2022/05/21 00:56:05;;;;;;;14.18;3.83;;;12.50;84.00;;;;;;5033489;28;20043;-87
2022/05/21 01:01:17;;;;;;;16.63;4.03;;;12.50;84.20;;;;;;5021526;28;20045;-89
2022/05/21 01:03:44;;;;;;;12.70;4.93;;;12.50;84.20;;;;;;5040276;28;20403;-87
2022/05/21 01:06:11;;;;;;;16.33;4.07;;;12.60;84.30;;;;;;5018363;28;20124;-89
2022/05/21 01:08:38;;;;;;;19.60;4.75;;;12.50;84.60;;;;;;5017068;28;20091;-87
2022/05/21 01:11:10;;;;;;;10.80;4.00;;;12.50;84.60;;;;;;5026595;28;20041;-91
2022/05/21 01:13:38;;;;;;;14.55;4.28;;;12.50;84.60;;;;;;5034136;28;20048;-89
2022/05/21 01:16:04;;;;;;;14.55;5.00;;;12.60;84.70;;;;;;5031625;28;20049;-90
2022/05/21 01:18:30;;;;;;;13.48;4.78;;;12.50;84.70;;;;;;5020525;28;20041;-90
2022/05/21 01:20:58;;;;;;;13.48;4.15;;;12.40;85.10;;;;;;5032558;28;20808;-91
2022/05/21 01:23:26;;;;;;;11.48;4.35;;;12.40;85.10;;;;;;5026643;28;20042;-90
2022/05/21 01:25:53;;;;;;;15.35;4.28;;;12.40;85.30;;;;;;5018312;28;20469;-89
2022/05/21 01:28:22;;;;;;;15.63;4.80;;;12.40;85.20;;;;;;5019157;28;20029;-89
2022/05/21 01:30:57;;;;;;;12.82;4.30;;;12.40;85.20;;;;;;5016097;28;20075;-89
2022/05/21 01:33:36;;;;;;;17.88;5.00;;;12.40;85.30;;;;;;5015861;28;20045;-87
2022/05/21 01:36:06;;;;;;;11.55;4.38;;;12.40;85.40;;;;;;5035378;28;20039;-88
2022/05/21 01:38:32;;;;;;;14.93;4.60;;;12.40;85.70;;;;;;5023817;28;20481;-87
2022/05/21 01:40:59;;;;;;;16.48;5.80;;;12.40;85.70;;;;;;5024578;28;20044;-89
2022/05/21 01:46:13;;;;;;;12.50;4.63;;;12.40;85.60;;;;;;5034505;28;20508;-89
2022/05/21 01:48:39;;;;;;;14.70;5.00;;;12.40;85.70;;;;;;5025119;28;20034;-89
2022/05/21 01:51:06;;;;;;;15.43;4.88;;;12.30;85.70;;;;;;5028952;28;20103;-89
2022/05/21 01:53:34;;;;;;;15.38;4.88;;;12.30;85.80;;;;;;5042193;28;20022;-90
2022/05/21 01:56:00;;;;;;;16.23;4.70;;;12.30;86.10;;;;;;5034205;28;20492;-88
2022/05/21 01:58:27;;;;;;;21.33;5.28;;;12.40;86.00;;;;;;5047951;28;20029;-88
2022/05/21 02:00:54;;;;;;;22.98;6.22;;;12.30;86.20;;;;;;5028889;28;20048;-88
2022/05/21 02:03:20;;;;;;;18.88;5.70;;;12.30;86.40;;;;;;5015853;28;20034;-90
2022/05/21 02:05:45;;;;;;;18.77;5.82;;;12.30;86.70;;;;;;5024181;28;20172;-90
2022/05/21 02:08:13;;;;;;;20.25;6.45;;;12.30;86.70;;;;;;5042898;28;20120;-89
2022/05/21 02:10:39;;;;;;;17.38;6.55;;;12.20;86.80;;;;;;5028270;28;20045;-88
2022/05/21 02:13:06;;;;;;;18.35;5.82;;;12.20;86.90;;;;;;5023066;28;20521;-88
2022/05/21 02:15:32;;;;;;;17.73;6.20;;;12.20;87.00;;;;;;5022337;28;20059;-89
2022/05/21 02:17:58;;;;;;;17.58;5.68;;;12.10;87.10;;;;;;5042191;28;20049;-92
2022/05/21 02:20:24;;;;;;;24.38;6.72;;;12.20;87.30;;;;;;5028245;28;20389;-88
2022/05/21 02:22:50;;;;;;;19.92;6.30;;;12.10;87.30;;;;;;5026876;28;20115;-88
2022/05/21 02:25:16;;;;;;;14.85;5.40;;;12.10;87.40;;;;;;5032377;28;20029;-86
2022/05/21 02:27:43;;;;;;;17.50;5.45;;;12.10;87.30;;;;;;5025915;28;20128;-88
2022/05/21 02:30:09;;;;;;;18.88;6.05;;;12.10;87.40;;;;;;5016962;28;20026;-87
2022/05/21 02:32:35;;;;;;;19.42;5.47;;;12.10;87.40;;;;;;5032909;28;20475;-88
2022/05/21 02:35:01;;;;;;;17.15;5.35;;;12.10;87.40;;;;;;5019701;28;20040;-89
2022/05/21 02:40:11;;;;;;;15.50;5.68;;;12.00;87.70;;;;;;5028100;28;20117;-87
2022/05/21 02:42:43;;;;;;;20.50;5.93;;;12.00;87.70;;;;;;5034764;28;20128;-87
2022/05/21 02:45:16;;;;;;;16.52;5.82;;;11.90;87.60;;;;;;5021894;28;20073;-85
2022/05/21 02:47:43;;;;;;;17.10;5.97;;;11.90;87.80;;;;;;5032097;28;20041;-87
2022/05/21 02:50:10;;;;;;;18.45;5.68;;;11.90;87.90;;;;;;5042522;28;20568;-89
2022/05/21 02:52:36;;;;;;;17.77;6.07;;;11.90;88.00;;;;;;5043496;28;20100;-86
2022/05/21 02:55:03;;;;;;;16.83;6.10;;;11.80;88.00;;;;;;5018616;28;20038;-89
2022/05/21 02:57:29;;;;;;;22.77;7.10;;;11.80;88.20;;;;;;5032754;28;20096;-87
2022/05/21 02:59:54;;;;;;;18.35;6.00;;;11.90;88.30;;;;;;5037995;28;20061;-88
2022/05/21 03:02:20;;;;;;;17.63;7.07;;;11.90;88.20;;;;;;5038009;28;20073;-88
2022/05/21 03:04:46;;;;;;;20.95;6.25;;;11.80;88.10;;;;;;5024821;28;20037;-87
2022/05/21 03:07:12;;;;;;;21.15;6.60;;;11.80;88.20;;;;;;5033850;28;20400;-88
2022/05/21 03:12:22;;;;;;;23.38;7.00;;;11.80;88.30;;;;;;5029704;28;20045;-86
2022/05/21 03:14:48;;;;;;;20.45;6.35;;;11.80;88.40;;;;;;5037274;28;20034;-86
2022/05/21 03:17:13;;;;;;;19.77;6.93;;;11.70;88.50;;;;;;5023552;28;20390;-90
2022/05/21 03:19:39;;;;;;;16.92;6.32;;;11.80;88.70;;;;;;5040583;28;20033;-90
2022/05/21 03:22:05;;;;;;;21.27;7.22;;;11.70;88.60;;;;;;5035735;28;20505;-86
2022/05/21 03:24:31;;;;;;;18.67;7.30;;;11.70;88.60;;;;;;5038242;28;20032;-87
2022/05/21 03:26:58;;;;;;;15.50;7.35;;;11.70;88.80;;;;;;5025074;28;20068;-87
2022/05/21 03:29:24;;;;;;;22.05;7.20;;;11.70;88.70;;;;;;5016922;28;20034;-86
2022/05/21 03:31:50;;;;;;;21.67;8.50;;;11.70;88.90;;;;;;5025298;28;20488;-87
2022/05/21 03:34:18;;;;;;;24.45;7.65;;;11.70;88.90;;;;;;5035132;28;20056;-88
2022/05/21 03:36:44;;;;;;;19.80;7.78;;;11.70;89.00;;;;;;5016211;28;20120;-87
2022/05/21 03:39:10;;;;;;;19.63;6.80;;;11.70;89.00;;;;;;5030576;28;20034;-88
2022/05/21 03:41:38;;;;;;;25.95;8.13;;;11.70;89.00;;;;;;5025384;28;20175;-89
2022/05/21 03:44:04;;;;;;;26.45;8.57;;;11.70;89.10;;;;;;5029509;28;20380;-85
2022/05/21 03:46:30;;;;;;;24.08;7.65;;;11.80;89.20;;;;;;5041843;28;20460;-87
2022/05/21 03:48:56;;;;;;;22.17;8.10;;;11.80;89.20;;;;;;5014063;28;20125;-90
2022/05/21 03:51:22;;;;;;;23.92;8.07;;;11.90;89.10;;;;;;5021998;28;20793;-89
2022/05/21 03:53:47;;;;;;;23.05;7.30;;;11.80;89.10;;;;;;5029498;28;20128;-88
2022/05/21 03:56:13;;;;;;;21.45;8.07;;;11.90;89.00;;;;;;5018635;28;20044;-88
2022/05/21 03:58:39;;;;;;;21.35;7.60;;;11.90;89.10;;;;;;5030626;28;20037;-88
2022/05/21 04:01:05;;;;;;;22.80;7.68;;;11.90;89.00;;;;;;5037639;28;20041;-88
2022/05/21 04:03:33;;;;;;;18.40;7.32;;;12.00;89.00;;;;;;5027993;28;20107;-88
2022/05/21 04:05:59;;;;;;;30.17;8.30;;;12.00;88.90;;;;;;5031321;28;20358;-87
2022/05/21 04:08:25;;;;;;;21.95;7.50;;;12.10;88.80;;;;;;5039512;28;20615;-86
2022/05/21 04:10:51;;;;;;;23.25;7.03;;;12.10;88.90;;;;;;5021955;28;20037;-87
2022/05/21 04:13:18;;;;;;;21.48;7.65;;;12.10;88.80;;;;;;5027766;28;20033;-88
2022/05/21 04:15:44;;;;;;;25.08;7.57;;;12.20;88.70;;;;;;5018640;28;20072;-86
2022/05/21 04:18:10;;;;;;;21.65;7.65;;;12.20;88.70;;;;;;5016146;28;20057;-86
2022/05/21 04:20:36;;;;;;;26.58;7.25;;;12.30;88.50;;;;;;5024474;28;20076;-86
2022/05/21 04:23:02;;;;;;;19.85;6.90;;;12.40;88.50;;;;;;5024342;28;20075;-88
2022/05/21 04:25:28;;;;;;;34.30;8.45;;;12.50;88.30;;;;;;5016176;28;20136;-87
2022/05/21 04:27:53;;;;;;;27.45;7.28;;;12.60;88.10;;;;;;5021181;28;20463;-88
2022/05/21 04:30:28;;;;;;;23.08;7.03;;;12.60;87.90;;;;;;5027419;28;20092;-87
2022/05/21 04:32:55;;;;;;;27.50;8.13;;;12.70;87.70;;;;;;5026284;28;20037;-89
2022/05/21 04:35:21;;;;;;;27.38;7.60;;;12.90;87.60;;;;;;5033019;28;20053;-87
2022/05/21 04:37:47;;;;;;;28.08;7.57;;;13.00;87.20;;;;;;5027127;28;20037;-86
2022/05/21 04:40:19;;;;;;;23.17;6.82;;;13.00;87.10;;;;;;5032680;28;20051;-87
2022/05/21 04:42:45;;;;;;;24.45;6.30;;;13.10;86.80;;;;;;5014450;28;20049;-90
2022/05/21 04:45:11;;;;;;;28.08;7.03;;;13.10;86.50;;;;;;5032033;28;20009;-90
2022/05/21 04:47:37;;;;;;;23.30;6.85;;;13.20;86.30;;;;;;5052587;28;20083;-90
2022/05/21 04:50:07;;;;;;;22.17;6.63;;;13.20;85.80;;;;;;5032940;28;20038;-87
2022/05/21 04:52:33;;;;;;;23.88;6.68;;;13.30;85.80;;;;;;5038244;28;20036;-87
2022/05/21 04:55:01;;;;;;;26.25;8.27;;;13.40;85.60;;;;;;5028111;28;20079;-88
2022/05/21 04:57:27;;;;;;;28.50;7.20;;;13.50;85.60;;;;;;5017693;28;20038;-88
2022/05/21 04:59:53;;;;;;;25.40;5.90;;;13.60;85.30;;;;;;5029255;28;20056;-86
2022/05/21 05:02:18;;;;;;;23.73;7.28;;;13.70;84.70;;;;;;5022241;28;20128;-88
2022/05/21 05:04:44;;;;;;;19.40;5.93;;;13.80;84.50;;;;;;5036057;28;20044;-88
2022/05/21 05:07:10;;;;;;;28.63;6.15;;;13.80;83.70;;;;;;5041535;28;20046;-88
2022/05/21 05:09:41;;;;;;;24.35;6.28;;;13.80;83.70;;;;;;5024830;28;20094;-89
2022/05/21 05:12:07;;;;;;;21.65;5.70;;;14.00;83.70;;;;;;5032437;28;20556;-90
2022/05/21 05:14:32;;;;;;;26.38;6.53;;;13.90;83.30;;;;;;5039263;28;20109;-88
2022/05/21 05:16:58;;;;;;;28.90;6.20;;;14.00;83.00;;;;;;5022362;28;20033;-88
2022/05/21 05:19:23;;;;;;;21.00;5.65;;;14.00;83.30;;;;;;5027795;28;20038;-90
2022/05/21 05:21:49;;;;;;;18.73;5.10;;;14.30;82.30;;;;;;5036866;28;20116;-88
2022/05/21 05:24:16;;;;;;;28.25;6.80;;;14.50;81.40;;;;;;5026743;28;20473;-88
2022/05/21 05:26:43;;;;;;;23.60;6.15;;;14.60;81.60;;;;;;5030474;28;20072;-87
2022/05/21 05:29:09;;;;;;;24.88;7.20;;;14.60;80.80;;;;;;5028921;28;20508;-88
2022/05/21 05:31:35;;;;;;;25.08;6.07;;;15.00;80.40;;;;;;5020018;28;20049;-89
2022/05/21 05:34:01;;;;;;;19.60;5.32;;;15.80;77.50;;;;;;5017473;28;20049;-87
2022/05/21 05:36:28;;;;;;;25.25;5.55;;;16.40;75.30;;;;;;5022352;28;20065;-90
2022/05/21 05:38:57;;;;;;;22.13;6.68;;;17.00;72.50;;;;;;5023022;28;20085;-90
2022/05/21 05:41:23;;;;;;;18.67;5.28;;;17.10;72.60;;;;;;5031699;28;20060;-87
2022/05/21 05:43:51;;;;;;;18.48;5.43;;;17.40;71.40;;;;;;5012997;28;20041;-86
2022/05/21 05:46:16;;;;;;;19.65;5.97;;;17.20;70.50;;;;;;5024373;28;20047;-86
2022/05/21 05:48:42;;;;;;;22.60;6.05;;;16.80;71.90;;;;;;5022746;28;20377;-87
2022/05/21 05:51:08;;;;;;;22.08;5.97;;;16.20;73.70;;;;;;5043689;28;20037;-88
2022/05/21 05:53:33;;;;;;;19.15;5.18;;;15.70;75.20;;;;;;5028612;28;20046;-87
2022/05/21 05:55:59;;;;;;;21.23;5.55;;;15.50;76.60;;;;;;5026655;28;20088;-87
2022/05/21 06:01:08;;;;;;;23.05;5.95;;;15.20;78.00;;;;;;5031008;28;20049;-90
2022/05/21 06:03:34;;;;;;;22.30;5.15;;;15.10;78.50;;;;;;5030339;28;20400;-87
2022/05/21 06:06:01;;;;;;;16.13;5.38;;;15.10;78.00;;;;;;5035149;28;20042;-90
2022/05/21 06:08:27;;;;;;;20.48;5.65;;;15.10;78.20;;;;;;5020875;28;20457;-88
2022/05/21 06:10:53;;;;;;;23.52;6.03;;;15.10;77.90;;;;;;5019123;28;20042;-89
2022/05/21 06:13:19;;;;;;;21.63;6.30;;;15.10;78.40;;;;;;5023726;28;20841;-84
2022/05/21 06:15:44;;;;;;;24.92;6.70;;;15.10;78.10;;;;;;5030557;28;20036;-87
2022/05/21 06:18:16;;;;;;;21.85;5.88;;;15.30;78.60;;;;;;5015768;28;20044;-85
2022/05/21 06:20:43;;;;;;;22.90;6.40;;;15.50;77.60;;;;;;5014234;28;20038;-86
2022/05/21 06:23:09;;;;;;;20.75;6.10;;;15.50;78.00;;;;;;5013389;28;20068;-85
2022/05/21 06:25:36;;;;;;;24.08;6.22;;;15.40;77.60;;;;;;5012421;28;20045;-84
2022/05/21 06:28:03;;;;;;;23.27;5.50;;;15.80;77.10;;;;;;5012111;28;20536;-85
2022/05/21 06:30:31;;;;;;;24.05;6.03;;;16.10;76.40;;;;;;5009958;28;20042;-86
2022/05/21 06:32:57;;;;;;;20.73;5.55;;;16.00;76.30;;;;;;5008286;28;20037;-87
2022/05/21 06:35:23;;;;;;;24.60;6.07;;;16.10;76.00;;;;;;5012506;28;20022;-84
2022/05/21 06:37:49;;;;;;;24.67;5.57;;;16.00;75.90;;;;;;5013400;28;20052;-87
2022/05/21 06:40:16;;;;;;;17.20;5.57;;;16.10;75.50;;;;;;5009534;28;20115;-85
2022/05/21 06:42:42;;;;;;;17.67;4.90;;;16.10;75.70;;;;;;5008811;28;20440;-84
2022/05/21 06:45:09;;;;;;;21.88;6.63;;;15.90;76.00;;;;;;5015211;28;20476;-87
2022/05/21 06:47:36;;;;;;;21.15;5.53;;;16.10;75.50;;;;;;5024878;28;20037;-86
2022/05/21 06:50:04;;;;;;;23.83;6.25;;;16.10;75.10;;;;;;5024268;28;20041;-85
2022/05/21 06:52:30;;;;;;;24.73;6.82;;;16.10;75.40;;;;;;5011591;28;20045;-85
2022/05/21 06:54:56;;;;;;;26.17;6.40;;;16.10;74.60;;;;;;5006130;28;20034;-85
2022/05/21 06:57:26;;;;;;;20.88;6.32;;;16.00;75.10;;;;;;5013570;28;20088;-85
2022/05/21 06:59:52;;;;;;;24.92;7.07;;;16.10;74.90;;;;;;5011135;28;20037;-85
2022/05/21 07:02:17;;;;;;;20.80;6.35;;;16.20;74.70;;;;;;5019034;28;20069;-80
2022/05/21 07:07:34;;;;;;;20.50;5.88;;;16.40;73.50;;;;;;5015251;28;20087;-85
2022/05/21 07:10:06;;;;;;;27.38;6.28;;;16.50;73.40;;;;;;5029173;28;20049;-84
2022/05/21 07:12:33;;;;;;;22.80;6.97;;;16.80;72.60;;;;;;5025178;28;20044;-82
2022/05/21 07:14:59;;;;;;;20.25;6.32;;;16.90;72.40;;;;;;5019327;28;20026;-82
2022/05/21 07:17:25;;;;;;;21.10;6.78;;;16.60;72.40;;;;;;5027314;28;20407;-81
2022/05/21 07:19:50;;;;;;;22.77;7.22;;;16.70;71.80;;;;;;5020380;28;20699;-85
2022/05/21 07:22:16;;;;;;;23.88;6.78;;;16.70;73.10;;;;;;5016968;28;20422;-82
2022/05/21 07:24:42;;;;;;;21.55;6.85;;;16.60;73.40;;;;;;5019570;28;20815;-82
2022/05/21 07:27:10;;;;;;;23.33;6.80;;;16.60;72.40;;;;;;5009199;28;20470;-83
2022/05/21 07:29:37;;;;;;;21.15;6.90;;;16.60;72.80;;;;;;5015055;28;20100;-87
2022/05/21 07:32:04;;;;;;;24.10;7.30;;;16.60;72.60;;;;;;5021685;28;20376;-82
2022/05/21 07:34:29;;;;;;;26.08;7.72;;;16.70;73.10;;;;;;5015817;28;20477;-81
2022/05/21 07:36:55;;;;;;;22.77;7.38;;;16.80;72.50;;;;;;5028065;28;20239;-84
2022/05/21 07:39:20;;;;;;;19.60;8.23;;;17.00;71.30;;;;;;5023027;28;20037;-82
2022/05/21 07:41:46;;;;;;;23.25;9.05;;;16.80;72.00;;;;;;5023727;28;20050;-79
2022/05/21 07:44:12;;;;;;;23.58;7.50;;;16.80;71.40;;;;;;5019148;28;20479;-82
2022/05/21 07:46:38;;;;;;;23.60;8.57;;;16.90;71.80;;;;;;5020003;28;20400;-81
2022/05/21 07:49:04;;;;;;;19.05;7.60;;;17.30;70.80;;;;;;5017497;28;20031;-81
2022/05/21 07:51:30;;;;;;;21.70;8.80;;;17.40;70.10;;;;;;5016176;28;20026;-82
2022/05/21 07:53:56;;;;;;;24.90;8.50;;;17.40;70.30;;;;;;5017636;28;20079;-83
2022/05/21 07:56:22;;;;;;;19.90;6.70;;;17.60;70.50;;;;;;5031911;22;20041;-84
2022/05/21 07:58:49;;;;;;;20.67;7.35;;;18.00;68.20;;;;;;5019733;28;20233;-81
2022/05/21 08:01:16;;;;;;;21.70;6.57;;;18.20;66.00;;;;;;5029161;28;20017;-83
2022/05/21 08:03:42;;;;;;;20.50;6.97;;;17.80;66.90;;;;;;5021091;28;20045;-86
2022/05/21 08:06:08;;;;;;;15.52;5.75;;;18.10;66.40;;;;;;5016601;28;20033;-84
2022/05/21 08:08:34;;;;;;;23.50;6.60;;;18.40;66.10;;;;;;5035282;28;20534;-85
2022/05/21 08:11:00;;;;;;;17.83;5.40;;;18.40;66.10;;;;;;5031139;28;20054;-84
2022/05/21 08:13:26;;;;;;;13.93;5.20;;;18.40;65.90;;;;;;5027776;28;20037;-84
2022/05/21 08:15:51;;;;;;;18.67;6.13;;;18.60;64.50;;;;;;5015463;28;20109;-84
2022/05/21 08:18:17;;;;;;;14.98;5.78;;;18.70;64.00;;;;;;5035818;28;20437;-81
2022/05/21 08:20:43;;;;;;;15.95;5.45;;;18.80;65.10;;;;;;5032256;28;20116;-82
2022/05/21 08:28:43;;;;;;;19.05;5.93;;;19.30;61.10;;;;;;5027296;28;20102;-82
2022/05/21 08:31:09;;;;;;;16.13;5.50;;;19.30;61.30;;;;;;5029885;28;20132;-83
2022/05/21 08:33:35;;;;;;;14.43;4.40;;;19.40;59.80;;;;;;5025379;28;20423;-82
2022/05/21 08:36:01;;;;;;;17.17;5.40;;;19.50;60.80;;;;;;5017424;28;20037;-83
2022/05/21 08:38:26;;;;;;;17.45;5.20;;;19.50;60.20;;;;;;5015843;28;20033;-85
2022/05/21 08:41:18;;;;;;;23.42;5.97;;;19.10;60.70;;;;;;5021471;28;20129;-81
2022/05/21 08:44:01;;;;;;;16.67;4.53;;;19.10;60.00;;;;;;5026815;28;20142;-82
2022/05/21 08:47:01;;;;;;;17.80;4.93;;;19.20;59.90;;;;;;5031316;28;20033;-82
2022/05/21 08:49:42;;;;;;;16.75;4.72;;;19.10;60.90;;;;;;5012380;28;20114;-81
2022/05/21 08:52:22;;;;;;;14.82;5.03;;;18.70;60.70;;;;;;5013656;28;20107;-85
2022/05/21 08:57:43;;;;;;;15.63;5.22;;;19.10;60.00;;;;;;4990315;28;20050;-81
2022/05/21 09:00:14;;;;;;;18.70;5.13;;;18.80;60.70;;;;;;4988589;28;20041;-80
2022/05/21 09:02:40;;;;;;;19.75;4.65;;;19.00;59.80;;;;;;4992121;28;20064;-77
2022/05/21 09:05:12;;;;;;;13.10;4.43;;;19.50;56.30;;;;;;4994398;28;20038;-78
2022/05/21 09:08:03;;;;;;;19.00;4.47;;;19.40;58.30;;;;;;4989728;28;20271;-78
2022/05/21 09:11:01;;;;;;;14.48;3.67;;;19.30;57.80;;;;;;4955649;28;20184;-77
2022/05/21 09:13:52;;;;;;;15.23;3.47;;;19.40;56.10;;;;;;4999964;28;20038;-78
2022/05/21 09:19:06;;;;;;;16.70;4.30;;;18.80;58.10;;;;;;4994592;28;20068;-77
2022/05/21 09:21:36;;;;;;;13.57;4.15;;;18.40;60.70;;;;;;4997374;28;20036;-80
2022/05/21 09:24:04;;;;;;;13.05;3.88;;;18.40;60.70;;;;;;4998200;28;20452;-79
2022/05/21 09:26:51;;;;;;;14.20;4.13;;;18.70;57.80;;;;;;4990955;28;20041;-79
2022/05/21 09:29:21;;;;;;;14.35;3.63;;;19.00;59.60;;;;;;4997485;28;20127;-76
2022/05/21 09:31:48;;;;;;;11.98;3.50;;;19.50;55.80;;;;;;4993669;28;20132;-77
2022/05/21 09:34:20;;;;;;;12.63;3.60;;;19.80;56.40;;;;;;4998054;28;20161;-78
2022/05/21 09:36:46;;;;;;;12.90;3.67;;;20.00;55.00;;;;;;4993779;28;20065;-79
2022/05/21 09:39:27;;;;;;;11.73;3.30;;;19.90;55.30;;;;;;4995712;28;20084;-76
2022/05/21 09:42:08;;;;;;;11.18;3.88;;;20.10;55.40;;;;;;5000497;28;20091;-76
2022/05/21 09:47:24;;;;;;;12.35;3.42;;;19.80;55.00;;;;;;4992418;28;20228;-75
2022/05/21 09:50:10;;;;;;;14.48;3.22;;;19.40;56.10;;;;;;4994486;28;20052;-77
2022/05/21 09:52:36;;;;;;;13.20;3.60;;;19.40;55.90;;;;;;4997826;28;20081;-78
2022/05/21 09:55:04;;;;;;;12.63;3.22;;;19.90;55.90;;;;;;4998067;28;20072;-78
2022/05/21 09:57:43;;;;;;;12.32;3.83;;;20.30;54.10;;;;;;4999921;28;20034;-78
2022/05/21 10:00:24;;;;;;;10.02;2.55;;;21.10;51.80;;;;;;4988126;28;20034;-79
2022/05/21 10:03:01;;;;;;;11.75;2.88;;;20.20;52.00;;;;;;5014470;28;20041;-78
2022/05/21 10:05:50;;;;;;;11.13;3.40;;;19.50;53.70;;;;;;5001316;28;20376;-79
2022/05/21 10:11:33;;;;;;;9.60;3.85;;;19.60;54.20;;;;;;4988617;28;20056;-75
2022/05/21 10:14:02;;;;;;;11.55;4.10;;;19.20;54.80;;;;;;5009183;28;20053;-76
2022/05/21 10:16:59;;;;;;;13.20;3.72;;;19.60;55.60;;;;;;5008531;28;20042;-78
2022/05/21 10:19:54;;;;;;;13.68;3.60;;;19.70;55.20;;;;;;4992281;28;20112;-78
2022/05/21 10:22:38;;;;;;;12.05;3.83;;;19.30;55.10;;;;;;5008337;28;20041;-78
2022/05/21 10:25:13;;;;;;;11.30;3.42;;;19.60;54.80;;;;;;5008362;28;20049;-76
2022/05/21 10:27:51;;;;;;;9.93;2.92;;;19.90;53.00;;;;;;4997832;28;20038;-82
2022/05/21 10:30:35;;;;;;;8.35;2.63;;;19.60;53.90;;;;;;4996774;28;20048;-79
2022/05/21 10:33:18;;;;;;;14.30;3.28;;;19.80;54.10;;;;;;4997676;28;20053;-79
2022/05/21 10:36:16;;;;;;;11.02;3.15;;;20.40;52.60;;;;;;5000536;28;20437;-77
2022/05/21 10:39:19;;;;;;;13.68;3.78;;;21.30;52.20;;;;;;4991679;28;20034;-77
2022/05/21 10:41:57;;;;;;;13.48;3.60;;;21.60;50.30;;;;;;4998759;28;20038;-76
2022/05/21 10:44:28;;;;;;;9.90;3.45;;;20.50;52.10;;;;;;4996880;28;20206;-78
2022/05/21 10:47:10;;;;;;;12.15;3.63;;;20.10;52.90;;;;;;4999105;28;20185;-76
2022/05/21 10:49:45;;;;;;;14.35;3.55;;;20.40;52.70;;;;;;4993242;28;20073;-75
2022/05/21 10:52:51;;;;;;;12.00;3.00;;;20.60;52.30;;;;;;4996163;28;20046;-76
2022/05/21 10:55:26;;;;;;;13.25;3.15;;;20.30;52.90;;;;;;4998161;28;20550;-77
2022/05/21 10:57:52;;;;;;;12.10;3.83;;;19.90;53.40;;;;;;4997640;28;20034;-78
2022/05/21 11:00:32;;;;;;;11.85;3.25;;;19.80;54.00;;;;;;5001897;28;20041;-80
2022/05/21 11:03:19;;;;;;;9.57;3.30;;;20.20;52.80;;;;;;4997999;28;20057;-78
2022/05/21 11:05:54;;;;;;;12.40;4.32;;;20.20;52.60;;;;;;4992124;28;20048;-76
2022/05/21 11:08:27;;;;;;;11.60;3.28;;;20.10;53.50;;;;;;4995668;28;20457;-77
2022/05/21 11:11:01;;;;;;;13.93;4.03;;;20.70;53.20;;;;;;4988727;28;20037;-79
2022/05/21 11:14:02;;;;;;;9.80;3.08;;;20.60;52.00;;;;;;4987046;28;20378;-75
2022/05/21 11:16:43;;;;;;;10.48;3.08;;;20.80;51.90;;;;;;4996132;28;20367;-75
2022/05/21 11:19:17;;;;;;;14.00;3.55;;;20.60;52.40;;;;;;4994145;28;20031;-75
2022/05/21 11:21:53;;;;;;;;;;;20.70;53.10;;;;;;4999827;28;20104;-74
2022/05/21 11:24:30;;;;;;;12.73;3.58;;;20.30;54.20;;;;;;4995920;28;20388;-78
2022/05/21 11:26:58;;;;;;;11.68;3.30;;;19.80;54.70;;;;;;4996168;28;20377;-80
2022/05/21 11:29:24;;;;;;;11.98;3.25;;;19.80;54.20;;;;;;4991901;28;20382;-77
2022/05/21 11:37:48;;;;;;;8.30;2.50;;;21.60;47.50;;;;;;5001188;28;20057;-78
2022/05/21 11:40:50;;;;;;;10.50;3.22;;;22.10;46.50;;;;;;4997392;28;20035;-76
2022/05/21 11:43:20;;;;;;;11.32;3.20;;;22.40;45.40;;;;;;4936987;28;20042;-79
2022/05/21 11:46:07;;;;;;;10.98;3.67;;;22.40;46.50;;;;;;4999012;28;20123;-76
2022/05/21 11:48:33;;;;;;;8.45;3.30;;;22.60;46.40;;;;;;4996925;28;20033;-77
2022/05/21 11:51:17;;;;;;;10.25;2.72;;;22.90;45.60;;;;;;5000326;28;20045;-80
2022/05/21 11:53:45;;;;;;;10.13;3.70;;;22.80;46.30;;;;;;4997563;28;20054;-77
2022/05/21 11:56:12;;;;;;;9.07;2.70;;;22.60;45.80;;;;;;4992340;28;20392;-83
2022/05/21 11:59:00;;;;;;;9.63;2.95;;;22.40;47.00;;;;;;4998157;28;20049;-83
2022/05/21 12:01:49;;;;;;;9.43;2.70;;;22.20;48.30;;;;;;4999119;28;20050;-81
2022/05/21 12:04:40;;;;;;;11.35;2.50;;;22.50;45.50;;;;;;4992339;28;20045;-78
2022/05/21 12:07:07;;;;;;;8.73;2.30;;;21.80;45.20;;;;;;4996039;28;20469;-77
2022/05/21 12:09:34;;;;;;;9.50;1.90;;;21.80;46.50;;;;;;4997770;28;20042;-79
2022/05/21 12:12:24;;;;;;;7.82;2.58;;;21.80;46.10;;;;;;4994360;28;20046;-77
2022/05/21 12:14:53;;;;;;;10.57;2.65;;;22.10;47.30;;;;;;4993487;28;20471;-77
2022/05/21 12:17:40;;;;;;;12.20;3.08;;;22.60;46.30;;;;;;5000140;28;20034;-80
2022/05/21 12:20:11;;;;;;;10.98;2.90;;;22.90;44.70;;;;;;4991830;28;20498;-83
2022/05/21 12:22:46;;;;;;;11.73;3.40;;;22.60;45.00;;;;;;4995628;28;20042;-77
2022/05/21 12:25:52;;;;;;;8.77;2.20;;;22.40;44.90;;;;;;4994857;28;20034;-79
2022/05/21 12:28:18;;;;;;;11.07;2.83;;;22.60;44.50;;;;;;4991940;28;20090;-82
2022/05/21 12:30:43;;;;;;;8.23;2.30;;;23.00;43.20;;;;;;4996058;28;20485;-82
2022/05/21 12:33:23;;;;;;;9.90;2.95;;;23.20;42.10;;;;;;4993504;28;20133;-78
2022/05/21 12:36:11;;;;;;;9.73;2.38;;;22.60;44.50;;;;;;4996266;28;20034;-78
2022/05/21 12:38:39;;;;;;;9.18;2.58;;;22.30;44.20;;;;;;4996784;28;20037;-77
2022/05/21 12:41:23;;;;;;;7.53;2.08;;;22.10;45.60;;;;;;4993184;28;20044;-77
2022/05/21 12:43:51;;;;;;;9.98;2.17;;;22.20;44.20;;;;;;4995903;28;20116;-79
2022/05/21 12:46:28;;;;;;;10.05;2.55;;;22.50;43.80;;;;;;4992599;28;20489;-77
2022/05/21 12:48:57;;;;;;;7.88;2.67;;;22.00;44.10;;;;;;4989051;28;20030;-86
2022/05/21 12:51:28;;;;;;;10.27;2.33;;;22.40;41.70;;;;;;4994886;28;20049;-79
2022/05/21 12:53:55;;;;;;;11.73;3.20;;;22.80;41.30;;;;;;4992854;28;20045;-80
2022/05/21 12:56:24;;;;;;;11.93;3.67;;;22.90;41.80;;;;;;4996493;28;20049;-79
2022/05/21 12:59:08;;;;;;;10.60;2.88;;;22.90;42.40;;;;;;4999433;28;20133;-77
2022/05/21 13:01:40;;;;;;;8.73;2.80;;;22.90;41.40;;;;;;4998586;28;20042;-77
2022/05/21 13:04:23;;;;;;;9.18;2.30;;;22.90;42.20;;;;;;4999019;28;20413;-79
2022/05/21 13:06:58;;;;;;;9.77;2.97;;;23.10;41.80;;;;;;4996779;28;20052;-81
2022/05/21 13:09:23;;;;;;;;;;;23.50;40.30;;;;;;5001755;28;20034;-80
2022/05/21 13:11:49;;;;;;;10.13;3.22;;;22.90;42.90;;;;;;5003668;28;19932;-78
2022/05/21 13:14:24;;;;;;;9.52;3.00;;;22.60;44.80;;;;;;4991150;28;20034;-84
2022/05/21 13:16:53;;;;;;;9.60;2.70;;;22.60;43.90;;;;;;4999801;28;20104;-78
2022/05/21 13:19:45;;;;;;;10.27;2.67;;;23.00;42.70;;;;;;4998372;28;20069;-76
2022/05/21 13:23:04;;;;;;;13.77;3.08;;;22.90;42.00;;;;;;5002236;28;20049;-76
2022/05/21 13:25:30;;;;;;;9.15;2.42;;;22.10;43.80;;;;;;4942015;28;20048;-81
2022/05/21 13:27:57;;;;;;;7.28;2.00;;;22.20;44.50;;;;;;4998129;28;20375;-76
2022/05/21 13:30:33;;;;;;;9.95;2.78;;;22.30;42.70;;;;;;4999511;28;20112;-76
2022/05/21 13:33:02;;;;;;;7.95;2.05;;;22.40;41.60;;;;;;4995958;28;20041;-78
2022/05/21 13:35:38;;;;;;;7.40;1.83;;;23.00;39.30;;;;;;4998714;28;20439;-80